createdAt,value
2018-11-05T00:01:23.797Z,19.00
2018-11-05T00:03:28.947Z,16.97
2018-11-05T00:05:32.928Z,17.47
2018-11-05T00:07:39.502Z,16.20
2018-11-05T00:09:43.678Z,17.73
2018-11-05T00:11:49.776Z,16.90
2018-11-05T00:13:54.307Z,18.97
2018-11-05T00:15:58.256Z,16.73
2018-11-05T00:18:04.068Z,16.67
2018-11-05T00:20:10.259Z,18.63
2018-11-05T00:22:15.125Z,17.47
2018-11-05T00:24:19.504Z,19.13
2018-11-05T00:26:23.854Z,17.40
2018-11-05T00:28:28.200Z,20.07
2018-11-05T00:30:32.764Z,17.70
2018-11-05T00:32:36.836Z,16.67
2018-11-05T00:34:40.984Z,16.97
2018-11-05T00:36:45.204Z,17.17
2018-11-05T00:38:50.259Z,18.03
2018-11-05T00:40:55.769Z,18.20
2018-11-05T00:42:59.792Z,16.33
2018-11-05T00:45:03.902Z,18.40
2018-11-05T00:47:08.195Z,17.87
2018-11-05T00:49:12.793Z,17.13
2018-11-05T00:51:18.464Z,16.73
2018-11-05T00:53:25.992Z,18.27
2018-11-05T00:55:32.142Z,17.70
2018-11-05T00:57:36.113Z,17.70
2018-11-05T00:59:40.714Z,17.03
2018-11-05T01:01:45.885Z,17.30
2018-11-05T01:03:50.597Z,17.10
2018-11-05T01:05:54.626Z,19.13
2018-11-05T01:07:58.687Z,17.47
2018-11-05T01:10:03.136Z,17.67
2018-11-05T01:12:09.551Z,19.23
2018-11-05T01:14:13.562Z,17.17
2018-11-05T01:16:17.503Z,18.60
2018-11-05T01:18:21.554Z,17.77
2018-11-05T01:20:26.301Z,17.23
2018-11-05T01:22:30.854Z,16.57
2018-11-05T01:24:34.946Z,18.30
2018-11-05T01:26:38.950Z,17.13
2018-11-05T01:28:42.936Z,17.27
2018-11-05T01:30:47.784Z,17.80
2018-11-05T01:32:59.554Z,17.30
2018-11-05T01:35:03.684Z,16.67
2018-11-05T01:37:10.286Z,18.60
2018-11-05T01:39:14.305Z,17.33
2018-11-05T01:41:18.259Z,17.10
2018-11-05T01:43:22.767Z,18.63
2018-11-05T01:45:26.729Z,19.60
2018-11-05T01:47:31.059Z,19.37
2018-11-05T01:49:36.985Z,17.07
2018-11-05T01:51:40.972Z,17.37
2018-11-05T01:53:44.922Z,16.27
2018-11-05T01:55:48.971Z,18.13
2018-11-05T01:57:53.556Z,18.03
2018-11-05T01:59:58.626Z,18.70
2018-11-05T02:02:02.543Z,19.23
2018-11-05T02:04:06.630Z,18.17
2018-11-05T02:06:10.560Z,17.73
2018-11-05T02:08:14.552Z,17.90
2018-11-05T02:10:19.395Z,17.63
2018-11-05T02:12:24.248Z,17.33
2018-11-05T02:14:28.300Z,16.70
2018-11-05T02:16:32.407Z,17.70
2018-11-05T02:18:36.400Z,18.03
2018-11-05T02:20:40.418Z,17.37
2018-11-05T02:22:47.735Z,15.73
2018-11-05T02:24:51.647Z,16.93
2018-11-05T02:26:56.368Z,15.07
2018-11-05T02:29:00.456Z,16.23
2018-11-05T02:31:04.427Z,18.67
2018-11-05T02:33:08.509Z,15.93
2018-11-05T02:35:13.726Z,15.37
2018-11-05T02:37:17.698Z,18.13
2018-11-05T02:39:22.594Z,15.00
2018-11-05T02:41:26.605Z,16.97
2018-11-05T02:43:31.535Z,16.23
2018-11-05T02:45:35.511Z,15.43
2018-11-05T02:47:43.582Z,17.47
2018-11-05T02:49:49.365Z,15.13
2018-11-05T02:51:53.995Z,15.77
2018-11-05T02:53:58.091Z,14.47
2018-11-05T02:56:04.549Z,17.00
2018-11-05T02:58:08.564Z,15.20
2018-11-05T03:00:17.160Z,16.47
2018-11-05T03:02:21.199Z,14.43
2018-11-05T03:04:25.346Z,15.60
2018-11-05T03:06:29.424Z,17.83
2018-11-05T03:08:35.653Z,16.20
2018-11-05T03:10:39.692Z,16.10
2018-11-05T03:12:44.437Z,15.10
2018-11-05T03:14:48.428Z,17.20
2018-11-05T03:16:52.421Z,16.60
2018-11-05T03:18:56.999Z,15.13
2018-11-05T03:21:02.836Z,16.70
2018-11-05T03:23:07.592Z,16.43
2018-11-05T03:25:11.540Z,15.50
2018-11-05T03:27:16.333Z,19.97
2018-11-05T03:29:20.276Z,17.10
2018-11-05T03:31:24.370Z,15.00
2018-11-05T03:33:28.303Z,15.97
2018-11-05T03:35:32.673Z,18.17
2018-11-05T03:37:37.596Z,17.37
2018-11-05T03:39:41.557Z,16.70
2018-11-05T03:41:45.579Z,17.60
2018-11-05T03:43:51.513Z,15.23
2018-11-05T03:45:55.440Z,15.90
2018-11-05T03:47:59.408Z,19.73
2018-11-05T03:50:03.485Z,16.77
2018-11-05T03:52:07.816Z,15.83
2018-11-05T03:54:12.459Z,15.73
2018-11-05T03:56:17.175Z,17.73
2018-11-05T03:58:21.210Z,19.50
2018-11-05T04:00:26.465Z,16.13
2018-11-05T04:02:31.204Z,18.07
2018-11-05T04:04:35.218Z,17.27
2018-11-05T04:06:39.185Z,17.70
2018-11-05T04:08:43.159Z,18.17
2018-11-05T04:10:48.384Z,18.00
2018-11-05T04:12:52.491Z,17.73
2018-11-05T04:14:56.517Z,16.60
2018-11-05T04:17:00.629Z,19.77
2018-11-05T04:19:08.728Z,18.50
2018-11-05T04:21:12.809Z,15.87
2018-11-05T04:23:17.290Z,16.03
2018-11-05T04:25:21.343Z,17.57
2018-11-05T04:27:25.392Z,15.73
2018-11-05T04:29:30.645Z,16.57
2018-11-05T04:31:34.597Z,16.47
2018-11-05T04:33:38.553Z,16.40
2018-11-05T04:35:42.593Z,21.50
2018-11-05T04:37:46.599Z,20.20
2018-11-05T04:39:51.315Z,17.30
2018-11-05T04:41:55.418Z,19.93
2018-11-05T04:43:59.785Z,19.63
2018-11-05T04:46:03.807Z,18.67
2018-11-05T04:48:07.889Z,19.57
2018-11-05T04:50:14.416Z,18.17
2018-11-05T04:52:18.708Z,20.00
2018-11-05T04:54:22.712Z,21.57
2018-11-05T04:56:26.701Z,22.43
2018-11-05T04:58:30.755Z,18.53
2018-11-05T05:00:35.070Z,19.47
2018-11-05T05:02:39.990Z,17.07
2018-11-05T05:04:44.053Z,15.87
2018-11-05T05:06:48.255Z,19.67
2018-11-05T05:08:52.246Z,20.77
2018-11-05T05:10:56.208Z,17.67
2018-11-05T05:13:00.245Z,21.83
2018-11-05T05:15:04.965Z,19.57
2018-11-05T05:17:09.001Z,17.07
2018-11-05T05:19:13.580Z,17.73
2018-11-05T05:21:17.560Z,21.13
2018-11-05T05:23:21.516Z,20.20
2018-11-05T05:25:25.602Z,18.63
2018-11-05T05:27:30.462Z,21.07
2018-11-05T05:29:35.152Z,18.33
2018-11-05T05:31:41.793Z,20.03
2018-11-05T05:33:45.792Z,16.67
2018-11-05T05:35:49.828Z,18.90
2018-11-05T05:37:53.863Z,19.80
2018-11-05T05:39:58.384Z,20.53
2018-11-05T05:42:02.573Z,23.60
2018-11-05T05:44:08.944Z,24.10
2018-11-05T05:46:12.935Z,29.93
2018-11-05T05:48:16.943Z,27.17
2018-11-05T05:50:20.915Z,24.17
2018-11-05T05:52:25.191Z,28.67
2018-11-05T05:54:29.229Z,27.33
2018-11-05T05:56:33.251Z,30.50
2018-11-05T05:58:37.356Z,25.50
2018-11-05T06:00:41.898Z,21.67
2018-11-05T06:02:45.885Z,26.73
2018-11-05T06:04:52.076Z,22.30
2018-11-05T06:06:56.112Z,24.17
2018-11-05T06:09:00.647Z,21.70
2018-11-05T06:11:04.868Z,20.57
2018-11-05T06:13:08.946Z,27.07
2018-11-05T06:15:16.780Z,22.20
2018-11-05T06:17:21.735Z,20.87
2018-11-05T06:19:26.837Z,20.10
2018-11-05T06:21:32.280Z,21.43
2018-11-05T06:23:36.430Z,20.23
2018-11-05T06:25:41.163Z,20.57
2018-11-05T06:27:45.587Z,22.53
2018-11-05T06:29:49.628Z,23.03
2018-11-05T06:31:53.736Z,22.40
2018-11-05T06:33:58.393Z,22.00
2018-11-05T06:36:02.386Z,22.70
2018-11-05T06:38:07.317Z,21.17
2018-11-05T06:40:13.560Z,20.23
2018-11-05T06:42:18.440Z,23.73
2018-11-05T06:44:22.548Z,24.77
2018-11-05T06:46:27.502Z,28.50
2018-11-05T06:48:31.783Z,21.53
2018-11-05T06:50:40.521Z,26.30
2018-11-05T06:52:46.465Z,26.53
2018-11-05T06:54:50.579Z,23.00
2018-11-05T06:56:54.667Z,22.43
2018-11-05T06:58:58.700Z,18.70
2018-11-05T07:01:02.898Z,23.97
2018-11-05T07:03:07.889Z,23.13
2018-11-05T07:05:12.749Z,20.97
2018-11-05T07:07:19.830Z,23.33
2018-11-05T07:09:23.875Z,22.03
2018-11-05T07:11:29.658Z,23.03
2018-11-05T07:13:33.691Z,24.70
2018-11-05T07:15:37.957Z,22.57
2018-11-05T07:17:43.516Z,23.17
2018-11-05T07:19:54.429Z,22.03
2018-11-05T07:21:59.352Z,24.83
2018-11-05T07:24:03.363Z,22.27
2018-11-05T07:26:08.581Z,23.97
2018-11-05T07:28:12.656Z,25.73
2018-11-05T07:30:24.164Z,25.67
2018-11-05T07:32:28.223Z,22.70
2018-11-05T07:34:34.144Z,25.97
2018-11-05T07:36:39.081Z,26.80
2018-11-05T07:38:43.226Z,28.33
2018-11-05T07:40:47.560Z,24.50
2018-11-05T07:42:53.335Z,30.43
2018-11-05T07:44:58.201Z,26.73
2018-11-05T07:47:02.211Z,24.37
2018-11-05T07:49:06.587Z,25.10
2018-11-05T07:51:17.327Z,24.00
2018-11-05T07:53:21.644Z,28.17
2018-11-05T07:55:28.741Z,26.07
2018-11-05T07:57:33.166Z,25.77
2018-11-05T07:59:38.532Z,24.47
2018-11-05T08:01:43.331Z,24.40
2018-11-05T08:03:48.342Z,23.60
2018-11-05T08:05:53.425Z,27.50
2018-11-05T08:08:01.480Z,25.00
2018-11-05T08:10:06.830Z,25.50
2018-11-05T08:12:15.243Z,26.00
2018-11-05T08:14:19.362Z,24.67
2018-11-05T08:16:26.362Z,24.13
2018-11-05T08:18:32.427Z,23.87
2018-11-05T08:20:38.395Z,24.30
2018-11-05T08:22:42.782Z,26.07
2018-11-05T08:24:46.818Z,26.83
2018-11-05T08:26:50.957Z,23.23
2018-11-05T08:28:56.932Z,26.17
2018-11-05T08:31:01.441Z,26.70
2018-11-05T08:33:08.170Z,25.40
2018-11-05T08:35:19.998Z,25.20
2018-11-05T08:37:24.579Z,28.10
2018-11-05T08:39:30.652Z,27.57
2018-11-05T08:41:36.975Z,27.13
2018-11-05T08:43:46.065Z,25.20
2018-11-05T08:45:54.058Z,28.40
2018-11-05T08:47:58.017Z,25.57
2018-11-05T08:50:02.989Z,23.57
2018-11-05T08:52:07.195Z,24.53
2018-11-05T08:54:11.553Z,24.37
2018-11-05T08:56:16.463Z,25.70
2018-11-05T08:58:21.484Z,27.27
2018-11-05T09:00:30.606Z,27.33
2018-11-05T09:02:34.708Z,25.80
2018-11-05T09:04:40.211Z,24.80
2018-11-05T09:06:45.043Z,29.37
2018-11-05T09:08:49.212Z,24.73
2018-11-05T09:10:57.588Z,28.53
2018-11-05T09:13:02.737Z,23.53
2018-11-05T09:15:11.584Z,26.93
2018-11-05T09:17:15.634Z,24.97
2018-11-05T09:19:23.985Z,24.87
2018-11-05T09:21:30.140Z,26.77
2018-11-05T09:23:36.748Z,31.20
2018-11-05T09:25:40.780Z,29.50
2018-11-05T09:27:45.271Z,25.13
2018-11-05T09:29:50.793Z,24.83
2018-11-05T09:31:58.780Z,27.90
2018-11-05T09:34:03.570Z,26.13
2018-11-05T09:36:11.137Z,29.07
2018-11-05T09:38:18.344Z,26.30
2018-11-05T09:40:25.996Z,26.90
2018-11-05T09:42:31.989Z,27.03
2018-11-05T09:44:35.997Z,29.33
2018-11-05T09:46:42.724Z,28.10
2018-11-05T09:48:46.684Z,28.57
2018-11-05T09:50:51.108Z,28.90
2018-11-05T09:52:55.832Z,27.30
2018-11-05T09:55:00.304Z,28.87
2018-11-05T09:57:04.793Z,28.50
2018-11-05T09:59:09.635Z,27.77
2018-11-05T10:01:16.590Z,26.73
2018-11-05T10:03:22.384Z,29.47
2018-11-05T10:05:28.006Z,25.17
2018-11-05T10:07:34.776Z,26.30
2018-11-05T10:09:42.616Z,27.23
2018-11-05T10:11:48.262Z,28.57
2018-11-05T10:13:53.769Z,30.13
2018-11-05T10:15:58.100Z,29.17
2018-11-05T10:18:02.646Z,30.97
2018-11-05T10:20:10.430Z,34.97
2018-11-05T10:22:15.422Z,27.30
2018-11-05T10:24:20.742Z,27.53
2018-11-05T10:26:25.620Z,27.33
2018-11-05T10:28:32.570Z,28.50
2018-11-05T10:30:38.671Z,29.87
2018-11-05T10:32:43.177Z,28.47
2018-11-05T10:34:47.246Z,29.53
2018-11-05T10:36:51.297Z,28.17
2018-11-05T10:38:57.046Z,32.30
2018-11-05T10:41:01.123Z,28.67
2018-11-05T10:43:07.446Z,29.73
2018-11-05T10:45:21.256Z,32.27
2018-11-05T10:47:25.470Z,30.13
2018-11-05T10:49:31.774Z,29.30
2018-11-05T10:51:40.319Z,29.20
2018-11-05T10:53:46.204Z,30.40
2018-11-05T10:58:15.213Z,27.53
2018-11-05T11:00:26.505Z,28.77
2018-11-05T11:02:35.853Z,26.03
2018-11-05T11:04:41.848Z,26.93
2018-11-05T11:06:46.558Z,29.07
2018-11-05T11:08:51.656Z,31.03
2018-11-05T11:11:05.347Z,27.17
2018-11-05T11:13:11.741Z,29.00
2018-11-05T11:15:17.297Z,28.80
2018-11-05T11:17:21.629Z,31.30
2018-11-05T11:19:25.969Z,31.30
2018-11-05T11:21:30.011Z,28.73
2018-11-05T11:23:34.197Z,33.70
2018-11-05T11:25:38.608Z,30.87
2018-11-05T11:27:43.338Z,30.73
2018-11-05T11:29:48.110Z,29.00
2018-11-05T11:31:52.235Z,31.87
2018-11-05T11:33:57.840Z,30.20
2018-11-05T11:36:02.080Z,32.47
2018-11-05T11:38:08.075Z,31.07
2018-11-05T11:40:21.208Z,32.00
2018-11-05T11:42:26.752Z,27.90
2018-11-05T11:44:34.056Z,33.53
2018-11-05T11:49:14.338Z,31.30
2018-11-05T11:51:19.369Z,31.30
2018-11-05T11:53:38.041Z,30.90
2018-11-05T11:55:42.028Z,30.53
2018-11-05T11:57:46.138Z,28.97
2018-11-05T11:59:50.714Z,28.13
2018-11-05T12:01:59.948Z,29.57
2018-11-05T12:04:04.383Z,28.47
2018-11-05T12:06:09.282Z,30.47
2018-11-05T12:08:18.732Z,32.53
2018-11-05T12:10:24.797Z,31.17
2018-11-05T12:12:45.515Z,30.67
2018-11-05T12:14:51.617Z,29.40
2018-11-05T12:16:59.688Z,28.87
2018-11-05T12:19:04.805Z,29.80
2018-11-05T12:21:14.339Z,33.03
2018-11-05T12:23:19.833Z,31.17
2018-11-05T12:25:24.317Z,32.33
2018-11-05T12:27:29.645Z,32.80
2018-11-05T12:29:33.713Z,32.23
2018-11-05T12:31:39.406Z,32.53
2018-11-05T12:33:44.153Z,30.27
2018-11-05T12:35:49.313Z,30.73
2018-11-05T12:37:59.008Z,32.17
2018-11-05T12:40:03.194Z,29.10
2018-11-05T12:42:10.633Z,33.37
2018-11-05T12:44:15.746Z,33.43
2018-11-05T12:46:20.042Z,29.93
2018-11-05T12:48:25.663Z,30.97
2018-11-05T12:50:30.722Z,34.33
2018-11-05T12:52:35.694Z,32.30
2018-11-05T12:54:39.767Z,33.93
2018-11-05T12:56:47.503Z,31.27
2018-11-05T12:58:52.309Z,26.93
2018-11-05T13:00:56.486Z,27.33
2018-11-05T13:03:01.709Z,32.13
2018-11-05T13:05:09.156Z,30.77
2018-11-05T13:07:17.575Z,31.40
2018-11-05T13:09:21.623Z,28.97
2018-11-05T13:11:25.715Z,31.47
2018-11-05T13:13:30.626Z,30.50
2018-11-05T13:15:34.709Z,32.57
2018-11-05T13:17:39.220Z,29.00
2018-11-05T13:19:47.564Z,32.33
2018-11-05T13:21:51.624Z,31.30
2018-11-05T13:24:12.514Z,29.30
2018-11-05T13:26:17.348Z,32.27
2018-11-05T13:28:21.720Z,29.87
2018-11-05T13:30:26.383Z,30.83
2018-11-05T13:32:34.584Z,28.37
2018-11-05T13:34:39.993Z,30.77
2018-11-05T13:36:46.935Z,29.87
2018-11-05T13:41:07.160Z,30.90
2018-11-05T13:43:11.471Z,29.13
2018-11-05T13:45:18.998Z,31.50
2018-11-05T13:47:24.020Z,31.37
2018-11-05T13:49:27.405Z,31.07
2018-11-05T13:51:32.069Z,32.40
2018-11-05T13:53:38.240Z,30.13
2018-11-05T13:55:42.296Z,29.03
2018-11-05T13:57:49.300Z,29.47
2018-11-05T13:59:53.238Z,31.03
2018-11-05T14:01:57.388Z,29.10
2018-11-05T14:04:02.523Z,29.27
2018-11-05T14:06:06.737Z,29.43
2018-11-05T14:08:14.579Z,31.13
2018-11-05T14:10:23.748Z,28.23
2018-11-05T14:12:28.788Z,32.20
2018-11-05T14:14:39.352Z,29.43
2018-11-05T14:16:45.301Z,32.20
2018-11-05T14:18:53.350Z,32.13
2018-11-05T14:20:57.517Z,29.43
2018-11-05T14:23:02.777Z,31.70
2018-11-05T14:25:08.436Z,28.87
2018-11-05T14:27:12.635Z,29.73
2018-11-05T14:29:17.250Z,30.03
2018-11-05T14:31:22.975Z,32.73
2018-11-05T14:33:26.945Z,35.07
2018-11-05T14:35:32.855Z,30.03
2018-11-05T14:37:37.787Z,28.83
2018-11-05T14:39:41.847Z,30.80
2018-11-05T14:41:50.967Z,31.77
2018-11-05T14:43:56.231Z,30.03
2018-11-05T14:46:00.289Z,28.03
2018-11-05T14:48:04.348Z,28.77
2018-11-05T14:50:10.940Z,29.63
2018-11-05T14:52:15.892Z,30.80
2018-11-05T14:54:22.761Z,29.00
2018-11-05T14:56:30.026Z,30.90
2018-11-05T14:58:34.004Z,29.27
2018-11-05T15:00:38.044Z,29.90
2018-11-05T15:02:42.370Z,30.77
2018-11-05T15:04:46.939Z,26.40
2018-11-05T15:06:50.972Z,30.03
2018-11-05T15:08:55.571Z,31.43
2018-11-05T15:11:03.487Z,27.67
2018-11-05T15:13:08.971Z,30.97
2018-11-05T15:15:22.290Z,27.37
2018-11-05T15:17:26.923Z,27.37
2018-11-05T15:19:33.753Z,28.10
2018-11-05T15:21:38.532Z,28.27
2018-11-05T15:23:43.936Z,28.63
2018-11-05T15:25:47.987Z,30.43
2018-11-05T15:27:52.202Z,29.93
2018-11-05T15:29:59.599Z,30.20
2018-11-05T15:32:03.711Z,28.23
2018-11-05T15:34:07.717Z,26.40
2018-11-05T15:36:11.832Z,30.97
2018-11-05T15:38:19.331Z,27.00
2018-11-05T15:40:23.389Z,27.70
2018-11-05T15:42:30.167Z,27.93
2018-11-05T15:44:34.268Z,28.97
2018-11-05T15:46:40.323Z,28.67
2018-11-05T15:48:44.741Z,32.10
2018-11-05T15:50:48.816Z,31.00
2018-11-05T15:52:53.402Z,28.50
2018-11-05T15:55:00.349Z,30.67
2018-11-05T15:57:05.280Z,32.87
2018-11-05T15:59:10.417Z,30.57
2018-11-05T16:01:14.541Z,30.00
2018-11-05T16:03:19.913Z,34.10
2018-11-05T16:05:24.168Z,31.57
2018-11-05T16:07:29.992Z,39.03
2018-11-05T16:09:35.218Z,34.87
2018-11-05T16:11:39.153Z,30.43
2018-11-05T16:13:45.293Z,28.20
2018-11-05T16:15:51.075Z,31.67
2018-11-05T16:18:00.833Z,34.63
2018-11-05T16:20:08.022Z,35.43
2018-11-05T16:22:17.712Z,39.10
2018-11-05T16:24:23.267Z,34.97
2018-11-05T16:26:28.111Z,32.83
2018-11-05T16:28:32.317Z,34.20
2018-11-05T16:30:36.557Z,32.53
2018-11-05T16:32:41.653Z,35.13
2018-11-05T16:34:47.529Z,34.27
2018-11-05T16:36:52.463Z,41.73
2018-11-05T16:38:58.301Z,34.73
2018-11-05T16:41:05.390Z,31.90
2018-11-05T16:43:13.632Z,35.83
2018-11-05T16:45:25.726Z,52.47
2018-11-05T16:50:22.635Z,33.07
2018-11-05T16:52:31.422Z,38.27
2018-11-05T16:54:35.444Z,34.33
2018-11-05T16:56:41.684Z,40.80
2018-11-05T16:58:47.284Z,36.77
2018-11-05T17:00:53.472Z,32.60
2018-11-05T17:02:57.810Z,33.77
2018-11-05T17:05:06.424Z,33.03
2018-11-05T17:07:11.321Z,35.27
2018-11-05T17:09:25.180Z,34.50
2018-11-05T17:11:31.920Z,33.10
2018-11-05T17:13:38.485Z,33.60
2018-11-05T17:15:45.912Z,37.10
2018-11-05T17:17:50.236Z,33.10
2018-11-05T17:19:57.155Z,36.30
2018-11-05T17:22:01.664Z,40.37
2018-11-05T17:24:05.715Z,36.73
2018-11-05T17:26:10.523Z,35.80
2018-11-05T17:28:15.234Z,33.30
2018-11-05T17:30:23.477Z,31.60
2018-11-05T17:32:29.742Z,34.40
2018-11-05T17:34:37.448Z,34.67
2018-11-05T17:36:41.574Z,31.97
2018-11-05T17:38:46.275Z,34.20
2018-11-05T17:40:54.620Z,38.50
2018-11-05T17:42:59.764Z,35.60
2018-11-05T17:45:10.089Z,32.73
2018-11-05T17:47:18.705Z,34.50
2018-11-05T17:49:23.830Z,35.63
2018-11-05T17:51:29.268Z,35.03
2018-11-05T17:53:36.457Z,33.83
2018-11-05T17:55:40.924Z,31.80
2018-11-05T17:57:48.051Z,32.40
2018-11-05T17:59:52.656Z,40.97
2018-11-05T18:01:57.686Z,36.30
2018-11-05T18:04:06.740Z,32.53
2018-11-05T18:06:14.788Z,32.73
2018-11-05T18:08:24.716Z,33.83
2018-11-05T18:10:28.728Z,35.70
2018-11-05T18:12:38.146Z,37.97
2018-11-05T18:14:46.631Z,42.10
2018-11-05T18:16:50.770Z,39.37
2018-11-05T18:18:57.098Z,44.17
2018-11-05T18:21:05.252Z,37.00
2018-11-05T18:23:10.692Z,39.23
2018-11-05T18:27:25.857Z,43.67
2018-11-05T18:29:34.150Z,40.73
2018-11-05T18:31:43.380Z,38.83
2018-11-05T18:33:50.226Z,37.70
2018-11-05T18:35:56.102Z,41.47
2018-11-05T18:38:05.117Z,38.87
2018-11-05T18:40:13.409Z,39.63
2018-11-05T18:42:19.617Z,40.43
2018-11-05T18:44:23.612Z,43.07
2018-11-05T18:46:28.807Z,44.37
2018-11-05T18:48:34.453Z,38.80
2018-11-05T18:50:40.592Z,41.43
2018-11-05T18:52:48.459Z,37.53
2018-11-05T18:54:55.368Z,40.77
2018-11-05T18:57:01.369Z,42.80
2018-11-05T18:59:10.039Z,39.13
2018-11-05T19:01:15.210Z,38.07
2018-11-05T19:03:21.119Z,38.67
2018-11-05T19:05:26.517Z,39.53
2018-11-05T19:07:33.410Z,38.47
2018-11-05T19:09:41.294Z,36.00
2018-11-05T19:11:46.256Z,39.63
2018-11-05T19:13:50.296Z,37.70
2018-11-05T19:16:01.108Z,36.00
2018-11-05T19:18:06.686Z,34.40
2018-11-05T19:20:13.381Z,35.50
2018-11-05T19:22:20.961Z,37.97
2018-11-05T19:24:26.843Z,42.07
2018-11-05T19:26:33.796Z,38.03
2018-11-05T19:28:40.458Z,43.80
2018-11-05T19:30:45.442Z,38.37
2018-11-05T19:32:56.602Z,38.87
2018-11-05T19:35:01.365Z,41.00
2018-11-05T19:37:05.597Z,38.50
2018-11-05T19:39:11.585Z,39.23
2018-11-05T19:41:17.429Z,36.37
2018-11-05T19:43:22.588Z,39.70
2018-11-05T19:45:26.583Z,40.43
2018-11-05T19:47:34.616Z,39.93
2018-11-05T19:49:41.637Z,42.83
2018-11-05T19:51:46.604Z,39.40
2018-11-05T19:53:57.460Z,40.47
2018-11-05T19:56:01.543Z,40.80
2018-11-05T19:58:06.558Z,40.13
2018-11-05T20:00:27.128Z,37.97
2018-11-05T20:02:47.302Z,41.70
2018-11-05T20:04:54.449Z,41.13
2018-11-05T20:07:03.421Z,41.97
2018-11-05T20:09:11.552Z,38.90
2018-11-05T20:11:16.356Z,44.83
2018-11-05T20:13:23.348Z,46.33
2018-11-05T20:15:28.128Z,40.90
2018-11-05T20:17:33.356Z,42.37
2018-11-05T20:19:37.629Z,45.07
2018-11-05T20:21:46.823Z,47.27
2018-11-05T20:23:54.634Z,42.30
2018-11-05T20:25:59.288Z,44.87
2018-11-05T20:28:03.434Z,41.47
2018-11-05T20:30:15.287Z,43.70
2018-11-05T20:32:19.705Z,45.23
2018-11-05T20:34:26.978Z,46.03
2018-11-05T20:36:35.717Z,43.60
2018-11-05T20:38:48.457Z,40.60
2018-11-05T20:40:53.333Z,41.73
2018-11-05T20:42:59.386Z,43.93
2018-11-05T20:45:04.022Z,44.27
2018-11-05T20:47:08.509Z,47.00
2018-11-05T20:49:12.820Z,44.50
2018-11-05T20:51:18.688Z,47.30
2018-11-05T20:55:32.112Z,45.83
2018-11-05T20:57:40.271Z,44.43
2018-11-05T21:00:23.399Z,45.27
2018-11-05T21:02:29.464Z,44.87
2018-11-05T21:04:33.531Z,43.47
2018-11-05T21:06:42.000Z,43.67
2018-11-05T21:08:49.671Z,44.07
2018-11-05T21:10:57.925Z,46.20
2018-11-05T21:13:02.725Z,45.00
2018-11-05T21:15:08.663Z,43.63
2018-11-05T21:17:21.857Z,46.90
2018-11-05T21:19:27.442Z,47.70
2018-11-05T21:21:34.355Z,45.57
2018-11-05T21:23:38.376Z,45.73
2018-11-05T21:25:43.406Z,42.33
2018-11-05T21:27:47.945Z,42.30
2018-11-05T21:29:53.277Z,47.93
2018-11-05T21:31:58.264Z,45.70
2018-11-05T21:34:03.439Z,50.50
2018-11-05T21:36:08.264Z,50.27
2018-11-05T21:38:12.284Z,48.57
2018-11-05T21:40:20.044Z,46.23
2018-11-05T21:42:25.627Z,48.73
2018-11-05T21:44:31.837Z,43.83
2018-11-05T21:46:39.145Z,44.73
2018-11-05T21:48:49.594Z,43.63
2018-11-05T21:50:55.161Z,54.40
2018-11-05T21:53:01.462Z,48.03
2018-11-05T21:55:05.980Z,47.03
2018-11-05T21:57:12.529Z,46.17
2018-11-05T21:59:18.826Z,41.80
2018-11-05T22:01:25.523Z,42.40
2018-11-05T22:03:32.752Z,47.60
2018-11-05T22:05:36.783Z,48.13
2018-11-05T22:07:42.006Z,45.90
2018-11-05T22:09:47.844Z,51.07
2018-11-05T22:11:53.371Z,45.93
2018-11-05T22:13:57.649Z,43.33
2018-11-05T22:16:01.765Z,49.07
2018-11-05T22:18:07.571Z,45.10
2018-11-05T22:20:13.728Z,45.07
2018-11-05T22:22:19.512Z,43.10
2018-11-05T22:24:30.294Z,44.43
2018-11-05T22:26:37.304Z,44.87
2018-11-05T22:28:42.738Z,44.03
2018-11-05T22:30:46.731Z,41.67
2018-11-05T22:32:52.467Z,48.90
2018-11-05T22:35:00.748Z,46.77
2018-11-05T22:37:22.090Z,78.87
2018-11-05T22:39:26.208Z,49.60
2018-11-05T22:41:31.476Z,54.33
2018-11-05T22:43:38.743Z,51.73
2018-11-05T22:45:44.361Z,62.10
2018-11-05T22:47:48.324Z,58.27
2018-11-05T22:49:53.298Z,61.07
2018-11-05T22:51:57.508Z,56.43
2018-11-05T22:54:04.289Z,57.00
2018-11-05T22:56:12.512Z,60.37
2018-11-05T22:58:19.556Z,59.17
2018-11-05T23:00:29.993Z,53.53
2018-11-05T23:02:34.956Z,64.50
2018-11-05T23:04:40.437Z,51.90
2018-11-05T23:06:46.411Z,52.60
2018-11-05T23:08:51.314Z,54.70
2018-11-05T23:10:56.116Z,50.50
2018-11-05T23:13:00.535Z,59.77
2018-11-05T23:15:05.486Z,54.80
2018-11-05T23:17:11.280Z,61.63
2018-11-05T23:19:16.426Z,55.10
2018-11-05T23:21:21.286Z,60.03
2018-11-05T23:23:28.729Z,57.40
2018-11-05T23:25:33.689Z,56.97
2018-11-05T23:27:37.691Z,59.03
2018-11-05T23:29:41.664Z,60.20
2018-11-05T23:31:46.121Z,60.57
2018-11-05T23:33:50.207Z,62.27
2018-11-05T23:35:54.283Z,63.23
2018-11-05T23:37:58.591Z,64.57
2018-11-05T23:40:06.700Z,54.60
2018-11-05T23:42:11.412Z,55.40
2018-11-05T23:44:15.437Z,59.47
2018-11-05T23:46:19.785Z,59.93
2018-11-05T23:48:23.895Z,59.57
2018-11-05T23:50:28.022Z,58.63
2018-11-05T23:52:32.063Z,52.83
2018-11-05T23:54:37.543Z,50.00
2018-11-05T23:56:44.556Z,51.33
2018-11-05T23:58:48.532Z,47.47
